createdAt,value
2023-03-15T00:05:41.932Z,3.4
2023-03-15T00:11:19.297Z,3.5
2023-03-15T00:16:41.091Z,3.3
2023-03-15T00:22:18.825Z,3.4
2023-03-15T00:28:11.802Z,3.3
2023-03-15T00:34:05.175Z,3.4
2023-03-15T00:39:58.092Z,3.5
2023-03-15T00:45:35.898Z,3.5
2023-03-15T00:51:12.311Z,3.5
2023-03-15T00:56:35.455Z,3.6
2023-03-15T01:01:41.714Z,3.6
2023-03-15T01:07:04.099Z,3.5
2023-03-15T01:12:57.403Z,3.6
2023-03-15T01:18:50.257Z,3.5
2023-03-15T01:24:42.890Z,3.5
2023-03-15T01:30:35.597Z,3.6
2023-03-15T01:36:12.459Z,3.6
2023-03-15T01:42:04.789Z,3.6
2023-03-15T01:53:34.451Z,3.5
2023-03-15T01:59:12.079Z,3.4
2023-03-15T02:04:50.043Z,3.3
2023-03-15T02:10:11.606Z,3.3
2023-03-15T02:15:48.212Z,3.1
2023-03-15T02:21:26.931Z,3.1
2023-03-15T02:27:20.304Z,2.8
2023-03-15T02:32:57.589Z,3
2023-03-15T02:38:20.391Z,3.2
2023-03-15T02:44:13.194Z,2.9
2023-03-15T02:50:05.929Z,3
2023-03-15T02:55:43.291Z,3
2023-03-15T03:01:20.116Z,2.8
2023-03-15T03:07:12.983Z,2.8
2023-03-15T03:13:05.973Z,3.1
2023-03-15T03:18:27.443Z,3.1
2023-03-15T03:24:04.268Z,2.9
2023-03-15T03:29:42.894Z,3.2
2023-03-15T03:35:36.167Z,3.7
2023-03-15T03:41:29.021Z,3.7
2023-03-15T03:47:06.830Z,3.3
2023-03-15T03:52:59.740Z,3.3
2023-03-15T03:58:37.249Z,3.1
2023-03-15T04:04:14.809Z,3
2023-03-15T04:09:51.306Z,3.3
2023-03-15T04:15:44.207Z,3.4
2023-03-15T04:21:22.046Z,3.1
2023-03-15T04:26:59.051Z,3.1
2023-03-15T04:32:51.470Z,3.3
2023-03-15T04:38:44.886Z,3.3
2023-03-15T04:44:36.742Z,3.3
2023-03-15T04:49:57.800Z,3.3
2023-03-15T04:55:51.193Z,3.4
2023-03-15T05:01:12.981Z,3.2
2023-03-15T05:07:08.415Z,3.3
2023-03-15T05:13:05.492Z,3.5
2023-03-15T05:18:41.329Z,3.7
2023-03-15T05:24:18.539Z,3.8
2023-03-15T05:30:12.058Z,4.1
2023-03-15T05:35:49.317Z,4.1
2023-03-15T05:41:41.220Z,4.3
2023-03-15T05:47:34.458Z,4.5
2023-03-15T05:53:26.927Z,4.3
2023-03-15T05:59:21.974Z,4.2
2023-03-15T06:05:00.733Z,4.4
2023-03-15T06:10:37.615Z,4.4
2023-03-15T06:16:15.608Z,5.8
2023-03-15T06:22:11.031Z,6.4
2023-03-15T06:28:02.924Z,6.3
2023-03-15T06:33:57.938Z,6.4
2023-03-15T06:39:50.911Z,6.4
2023-03-15T06:45:44.194Z,6.3
2023-03-15T06:51:52.907Z,6.6
2023-03-15T06:57:46.535Z,7.6
2023-03-15T07:03:40.473Z,7.6
2023-03-15T07:09:17.348Z,8.1
2023-03-15T07:15:11.267Z,8.3
2023-03-15T07:21:12.191Z,9.1
2023-03-15T07:27:20.569Z,9.1
2023-03-15T07:32:59.247Z,9.3
2023-03-15T07:38:54.410Z,8.6
2023-03-15T07:44:48.613Z,9.9
2023-03-15T07:50:43.016Z,9.9
2023-03-15T07:56:36.426Z,10.9
2023-03-15T08:02:19.888Z,10.4
2023-03-15T08:08:03.544Z,10.6
2023-03-15T08:13:25.060Z,10.2
2023-03-15T08:19:03.473Z,10.1
2023-03-15T08:24:58.079Z,10.3
2023-03-15T08:30:50.970Z,10.6
2023-03-15T08:36:45.434Z,11
2023-03-15T08:42:40.995Z,11.6
2023-03-15T08:48:52.142Z,11.2
2023-03-15T08:54:44.545Z,13.1
2023-03-15T09:00:41.729Z,12.8
2023-03-15T09:06:21.843Z,12.6
2023-03-15T09:12:15.400Z,12.1
2023-03-15T09:18:08.291Z,13.1
2023-03-15T09:24:24.223Z,12.7
2023-03-15T09:30:00.848Z,11.9
2023-03-15T09:35:58.991Z,11.6
2023-03-15T09:41:50.732Z,11.3
2023-03-15T09:47:43.259Z,12.6
2023-03-15T09:53:20.772Z,11.7
2023-03-15T09:59:14.673Z,11.8
2023-03-15T10:04:52.794Z,11.8
2023-03-15T10:10:46.528Z,11.6
2023-03-15T10:16:39.113Z,11.2
2023-03-15T10:22:32.416Z,11.9
2023-03-15T10:28:26.181Z,11.9
2023-03-15T10:34:33.449Z,12.3
2023-03-15T10:40:38.538Z,12.2
2023-03-15T10:46:38.030Z,11.6
2023-03-15T10:52:48.515Z,11.9
2023-03-15T10:58:45.494Z,11.7
2023-03-15T11:04:50.737Z,12
2023-03-15T11:10:43.982Z,11.3
2023-03-15T11:16:36.755Z,11.6
2023-03-15T11:22:29.859Z,12.1
2023-03-15T11:28:33.388Z,11.6
2023-03-15T11:34:11.015Z,11.4
2023-03-15T11:40:28.847Z,10.7
2023-03-15T11:46:20.822Z,10.8
2023-03-15T11:51:41.927Z,10.1
2023-03-15T11:57:35.422Z,9.5
2023-03-15T12:03:15.896Z,9.3
2023-03-15T12:09:15.752Z,9.6
2023-03-15T12:14:54.055Z,9.7
2023-03-15T12:20:47.479Z,9.9
2023-03-15T12:26:21.660Z,9.9
2023-03-15T12:32:00.859Z,9.8
2023-03-15T12:37:37.788Z,10
2023-03-15T12:43:18.284Z,9.8
2023-03-15T12:48:41.435Z,9.9
2023-03-15T12:54:18.535Z,10.1
2023-03-15T13:00:07.512Z,10.2
2023-03-15T13:05:36.694Z,10.3
2023-03-15T13:11:33.240Z,10.2
2023-03-15T13:17:10.000Z,10.5
2023-03-15T13:22:55.341Z,10.4
2023-03-15T13:28:31.972Z,10.6
2023-03-15T13:34:09.735Z,10.5
2023-03-15T13:39:46.941Z,10.7
2023-03-15T13:45:23.844Z,10.4
2023-03-15T13:51:01.930Z,10.7
2023-03-15T13:57:05.931Z,10.7
2023-03-15T14:02:44.563Z,10.4
2023-03-15T14:08:21.866Z,10.5
2023-03-15T14:13:43.551Z,10.1
2023-03-15T14:19:37.747Z,10
2023-03-15T14:25:15.545Z,9.8
2023-03-15T14:30:53.138Z,9.8
2023-03-15T14:36:46.264Z,9.4
2023-03-15T14:42:39.136Z,9.4
2023-03-15T14:48:28.719Z,9.5
2023-03-15T14:54:21.589Z,9.4
2023-03-15T15:00:16.950Z,9.4
2023-03-15T15:06:09.293Z,9.3
2023-03-15T15:12:01.682Z,9.4
2023-03-15T15:18:28.371Z,9.3
2023-03-15T15:24:32.162Z,9.1
2023-03-15T15:30:20.708Z,9.1
2023-03-15T15:36:13.551Z,9
2023-03-15T15:42:09.166Z,8.8
2023-03-15T15:48:03.292Z,8.6
2023-03-15T15:53:39.934Z,8.5
2023-03-15T15:59:32.443Z,8.4
2023-03-15T16:05:27.735Z,8.4
2023-03-15T16:11:19.684Z,8.5
2023-03-15T16:17:12.454Z,8.6
2023-03-15T16:23:05.545Z,8.6
2023-03-15T16:28:57.781Z,8.5
2023-03-15T16:35:01.387Z,8.5
2023-03-15T16:40:39.023Z,8.4
2023-03-15T16:46:16.333Z,8.3
2023-03-15T16:52:09.211Z,8.3
2023-03-15T16:58:22.711Z,8.3
2023-03-15T17:04:17.930Z,8.1
2023-03-15T17:10:10.625Z,8
2023-03-15T17:16:03.420Z,7.9
2023-03-15T17:21:56.470Z,7.9
2023-03-15T17:27:51.600Z,7.7
2023-03-15T17:34:00.237Z,7.3
2023-03-15T17:39:36.913Z,7.2
2023-03-15T17:45:14.931Z,7.2
2023-03-15T17:50:36.595Z,7.2
2023-03-15T17:56:15.994Z,6.9
2023-03-15T18:02:14.528Z,6.7
2023-03-15T18:08:29.250Z,6.5
2023-03-15T18:14:21.464Z,6.6
2023-03-15T18:20:14.979Z,6.5
2023-03-15T18:26:07.123Z,6.4
2023-03-15T18:32:00.435Z,6.4
2023-03-15T18:37:38.468Z,6.4
2023-03-15T18:43:15.482Z,6.4
2023-03-15T18:49:21.065Z,6.3
2023-03-15T18:55:08.251Z,6.2
2023-03-15T19:00:32.836Z,6.2
2023-03-15T19:05:54.884Z,6.3
2023-03-15T19:17:10.625Z,6.2
2023-03-15T19:22:31.353Z,6
2023-03-15T19:28:08.566Z,6
2023-03-15T19:34:02.298Z,6
2023-03-15T19:39:39.485Z,5.9
2023-03-15T19:45:16.703Z,6
2023-03-15T19:50:39.407Z,6
2023-03-15T19:56:19.257Z,6.1
2023-03-15T20:01:56.677Z,6.1
2023-03-15T20:07:38.479Z,6.1
2023-03-15T20:13:32.506Z,6.1
2023-03-15T20:19:10.702Z,6.1
2023-03-15T20:24:32.907Z,6.1
2023-03-15T20:30:10.621Z,6.1
2023-03-15T20:36:05.699Z,6.1
2023-03-15T20:41:28.129Z,5.8
2023-03-15T20:47:05.680Z,5.2
2023-03-15T20:52:13.072Z,4.8
2023-03-15T20:57:34.926Z,4.5
2023-03-15T21:02:43.882Z,4.4
2023-03-15T21:08:20.898Z,4.1
2023-03-15T21:14:16.902Z,3.9
2023-03-15T21:19:54.811Z,3.8
2023-03-15T21:25:28.489Z,3.8
2023-03-15T21:31:09.634Z,3.6
2023-03-15T21:37:02.692Z,3.4
2023-03-15T21:42:54.733Z,3.3
2023-03-15T21:48:01.583Z,3.2
2023-03-15T21:53:23.543Z,3.1
2023-03-15T21:58:45.549Z,3
2023-03-15T22:04:25.303Z,2.9
2023-03-15T22:09:47.614Z,2.9
2023-03-15T22:15:50.859Z,2.8
2023-03-15T22:21:28.494Z,2.8
2023-03-15T22:26:50.180Z,2.6
2023-03-15T22:32:27.304Z,2.6
2023-03-15T22:37:49.310Z,2.6
2023-03-15T22:43:26.472Z,2.5
2023-03-15T22:49:03.837Z,2.5
2023-03-15T22:54:40.831Z,2.5
2023-03-15T23:00:02.997Z,2.5
2023-03-15T23:05:56.628Z,2.3
2023-03-15T23:11:33.399Z,2.3
2023-03-15T23:16:36.692Z,2.3
2023-03-15T23:21:59.380Z,2.3
2023-03-15T23:26:49.547Z,2.2
2023-03-15T23:32:12.086Z,2.2
2023-03-15T23:37:35.999Z,2.1
2023-03-15T23:43:14.315Z,2.1
2023-03-15T23:48:52.940Z,2.1
2023-03-15T23:54:46.243Z,2.1
